Time;durP1;ratioP1;P1;durP2;ratioP2;P2;SDS_P1;SDS_P2;PMS_P1;PMS_P2;Temp;Humidity;BMP_temperature;BMP_pressure;BME280_temperature;BME280_humidity;BME280_pressure;Samples;Min_cycle;Max_cycle;Signal;HPM_P1;HPM_P2
2022/10/08 00:00:45;;;;;;;;;;;27.20;94.20;;;;;;5064088;28;20021;-45
2022/10/08 00:03:14;;;;;;;;;;;27.20;94.30;;;;;;5081076;27;20048;-44
2022/10/08 00:05:41;;;;;;;;;;;27.20;94.10;;;;;;5044088;28;19913;-48
2022/10/08 00:08:08;;;;;;;;;;;27.10;94.10;;;;;;5044338;27;19917;-44
2022/10/08 00:10:34;;;;;;;;;;;27.10;94.30;;;;;;5040013;27;20032;-46
2022/10/08 00:13:01;;;;;;;;;;;27.20;94.50;;;;;;5043871;28;24082;-47
2022/10/08 00:15:27;;;;;;;;;;;27.10;94.60;;;;;;5043252;28;19936;-42
2022/10/08 00:17:54;;;;;;;;;;;27.20;94.80;;;;;;5042483;28;19908;-45
2022/10/08 00:20:20;;;;;;;;;;;27.20;94.60;;;;;;5043099;28;19909;-42
2022/10/08 00:22:47;;;;;;;;;;;27.20;94.50;;;;;;5041721;28;19916;-48
2022/10/08 00:25:13;;;;;;;;;;;27.20;94.50;;;;;;5041848;28;19901;-55
2022/10/08 00:27:40;;;;;;;;;;;27.20;94.50;;;;;;5041317;28;19931;-46
2022/10/08 00:30:07;;;;;;;;;;;27.20;94.60;;;;;;5042069;28;19972;-45
2022/10/08 00:32:33;;;;;;;;;;;27.20;94.50;;;;;;5041387;28;19909;-45
2022/10/08 00:34:59;;;;;;;;;;;27.20;94.40;;;;;;5042418;28;19912;-41
2022/10/08 00:37:25;;;;;;;;;;;27.20;94.40;;;;;;5040570;28;19947;-45
2022/10/08 00:39:51;;;;;;;;;;;27.20;94.40;;;;;;5034447;28;19909;-45
2022/10/08 00:42:18;;;;;;;;;;;27.20;94.50;;;;;;5042524;28;20193;-52
2022/10/08 00:44:50;;;;;;;;;;;27.30;94.50;;;;;;5031055;28;20276;-42
2022/10/08 00:47:30;;;;;;;;;;;27.30;94.50;;;;;;5039670;28;19909;-42
2022/10/08 00:50:16;;;;;;;;;;;27.30;94.50;;;;;;5043137;28;19912;-52
2022/10/08 00:52:44;;;;;;;;;;;27.30;94.60;;;;;;5042345;28;19915;-43
2022/10/08 00:55:12;;;;;;;;;;;27.30;94.70;;;;;;5043428;28;19921;-48
2022/10/08 00:57:38;;;;;;;;;;;27.30;94.70;;;;;;5062300;28;20047;-42
2022/10/08 01:00:10;;;;;;;;;;;27.30;94.80;;;;;;5061786;28;24066;-47
2022/10/08 01:02:37;;;;;;;;;;;27.30;94.80;;;;;;5061713;28;19956;-52
2022/10/08 01:05:04;;;;;;;;;;;27.30;94.80;;;;;;5062235;28;19905;-41
2022/10/08 01:07:34;;;;;;;;;;;27.30;94.90;;;;;;5044785;28;20049;-45
2022/10/08 01:10:00;;;;;;;;;;;27.30;94.90;;;;;;5062037;28;19905;-43
2022/10/08 01:12:45;;;;;;;;;;;27.30;94.80;;;;;;5061960;28;24077;-45
2022/10/08 01:15:24;;;;;;;;;;;27.30;94.70;;;;;;5055734;28;24091;-42
2022/10/08 01:18:05;;;;;;;;;;;27.30;94.80;;;;;;5042174;28;20038;-42
2022/10/08 01:20:50;;;;;;;;;;;27.30;94.80;;;;;;5041875;28;19909;-43
2022/10/08 01:23:24;;;;;;;;;;;27.30;94.80;;;;;;5067532;28;20090;-47
2022/10/08 01:25:54;;;;;;;;;;;27.30;94.80;;;;;;5042376;28;20073;-43
2022/10/08 01:28:20;;;;;;;;;;;27.30;94.80;;;;;;5041249;28;20147;-45
2022/10/08 01:31:14;;;;;;;;;;;27.30;94.70;;;;;;5042341;28;20164;-46
2022/10/08 01:33:40;;;;;;;;;;;27.30;94.70;;;;;;5042658;28;20189;-44
2022/10/08 01:36:06;;;;;;;;;;;27.30;94.70;;;;;;5042477;28;19909;-42
2022/10/08 01:38:34;;;;;;;;;;;27.30;94.70;;;;;;5042575;28;19915;-41
2022/10/08 01:41:04;;;;;;;;;;;27.30;94.70;;;;;;5043019;28;20157;-39
2022/10/08 01:43:32;;;;;;;;;;;27.20;94.80;;;;;;5016582;28;19959;-41
2022/10/08 01:46:10;;;;;;;;;;;27.30;94.80;;;;;;5039459;28;20181;-49
2022/10/08 01:48:39;;;;;;;;;;;27.20;94.70;;;;;;5016328;28;19982;-41
2022/10/08 01:51:17;;;;;;;;;;;27.30;94.70;;;;;;5066993;27;19942;-47
2022/10/08 01:53:45;;;;;;;;;;;27.30;94.60;;;;;;5069692;28;19909;-41
2022/10/08 01:56:14;;;;;;;;;;;27.30;94.70;;;;;;5121006;27;20139;-43
2022/10/08 01:58:48;;;;;;;;;;;27.30;94.60;;;;;;5037694;27;19920;-41
2022/10/08 02:01:40;;;;;;;;;;;27.30;94.60;;;;;;5035613;28;20063;-43
2022/10/08 02:06:54;;;;;;;;;;;27.30;94.50;;;;;;5022899;28;24058;-41
2022/10/08 02:09:21;;;;;;;;;;;27.30;94.40;;;;;;5014130;28;20040;-42
2022/10/08 02:11:47;;;;;;;;;;;27.30;94.30;;;;;;5040007;28;20372;-42
2022/10/08 02:14:13;;;;;;;;;;;27.30;94.30;;;;;;5022675;28;19969;-40
2022/10/08 02:16:42;;;;;;;;;;;27.20;94.20;;;;;;5039763;28;19972;-41
2022/10/08 02:19:11;;;;;;;;;;;27.20;94.20;;;;;;5040153;28;19952;-41
2022/10/08 02:21:39;;;;;;;;;;;27.20;94.20;;;;;;5040650;28;20060;-41
2022/10/08 02:24:05;;;;;;;;;;;27.20;94.20;;;;;;5043311;28;20240;-48
2022/10/08 02:26:34;;;;;;;;;;;27.20;94.10;;;;;;5134370;27;19927;-40
2022/10/08 02:29:11;;;;;;;;;;;27.20;94.10;;;;;;5075355;27;20097;-41
2022/10/08 02:31:49;;;;;;;;;;;27.20;94.00;;;;;;5033068;28;20187;-45
2022/10/08 02:34:27;;;;;;;;;;;27.20;94.00;;;;;;5062349;27;20097;-45
2022/10/08 02:37:02;;;;;;;;;;;27.20;94.00;;;;;;5070833;27;19903;-44
2022/10/08 02:39:30;;;;;;;;;;;27.10;94.00;;;;;;5076462;27;19920;-50
2022/10/08 02:41:59;;;;;;;;;;;27.10;93.90;;;;;;5035169;28;19912;-43
2022/10/08 02:44:37;;;;;;;;;;;27.10;94.00;;;;;;5049342;28;20097;-43
2022/10/08 02:47:05;;;;;;;;;;;27.10;93.90;;;;;;5053405;28;20102;-46
2022/10/08 02:49:34;;;;;;;;;;;27.10;93.90;;;;;;5033365;28;20037;-44
2022/10/08 02:52:01;;;;;;;;;;;27.10;93.90;;;;;;5041790;28;19954;-39
2022/10/08 02:54:31;;;;;;;;;;;27.10;93.90;;;;;;5039875;28;19973;-39
2022/10/08 02:57:17;;;;;;;;;;;27.10;93.90;;;;;;5039947;28;19960;-40
2022/10/08 02:59:44;;;;;;;;;;;27.10;93.90;;;;;;5075118;27;19984;-39
2022/10/08 03:02:15;;;;;;;;;;;27.10;93.80;;;;;;5040720;28;19931;-46
2022/10/08 03:04:51;;;;;;;;;;;27.10;93.90;;;;;;5060763;28;19905;-41
2022/10/08 03:07:17;;;;;;;;;;;27.10;93.90;;;;;;5026268;28;19915;-44
2022/10/08 03:09:45;;;;;;;;;;;27.10;93.90;;;;;;5040675;28;19908;-45
2022/10/08 03:12:11;;;;;;;;;;;27.10;93.80;;;;;;5039470;28;19909;-43
2022/10/08 03:14:39;;;;;;;;;;;27.10;93.90;;;;;;5041042;27;19908;-39
2022/10/08 03:17:05;;;;;;;;;;;27.10;93.90;;;;;;5040403;28;19916;-40
2022/10/08 03:19:33;;;;;;;;;;;27.10;93.80;;;;;;5045772;28;19977;-44
2022/10/08 03:22:01;;;;;;;;;;;27.10;93.80;;;;;;5042570;28;24118;-40
2022/10/08 03:24:27;;;;;;;;;;;27.10;93.80;;;;;;5047324;28;20078;-42
2022/10/08 03:26:53;;;;;;;;;;;27.10;93.80;;;;;;5047602;27;20067;-48
2022/10/08 03:29:19;;;;;;;;;;;27.10;93.90;;;;;;5050572;28;19932;-44
2022/10/08 03:31:49;;;;;;;;;;;27.10;94.00;;;;;;5116624;27;19949;-43
2022/10/08 03:34:15;;;;;;;;;;;27.10;94.00;;;;;;5067156;27;19905;-42
2022/10/08 03:36:41;;;;;;;;;;;27.00;93.90;;;;;;5038506;28;19942;-41
2022/10/08 03:39:10;;;;;;;;;;;27.10;93.90;;;;;;5068020;27;19972;-41
2022/10/08 03:41:36;;;;;;;;;;;27.10;93.90;;;;;;5102418;27;19905;-40
2022/10/08 03:44:03;;;;;;;;;;;27.10;94.00;;;;;;5043427;28;19909;-39
2022/10/08 03:46:29;;;;;;;;;;;27.00;93.90;;;;;;5046853;27;19901;-40
2022/10/08 03:48:55;;;;;;;;;;;27.10;94.00;;;;;;5047368;28;19976;-40
2022/10/08 03:51:22;;;;;;;;;;;27.00;94.00;;;;;;5047384;28;19912;-42
2022/10/08 03:53:48;;;;;;;;;;;27.00;94.00;;;;;;5047103;28;20074;-47
2022/10/08 03:56:19;;;;;;;;;;;27.00;94.00;;;;;;5051281;27;24072;-40
2022/10/08 03:58:45;;;;;;;;;;;27.00;94.00;;;;;;5103581;27;20134;-47
2022/10/08 04:01:13;;;;;;;;;;;27.00;94.00;;;;;;5046403;28;19905;-41
2022/10/08 04:03:39;;;;;;;;;;;27.00;94.00;;;;;;5046966;28;20311;-43
2022/10/08 04:06:05;;;;;;;;;;;27.00;93.90;;;;;;5047308;28;19909;-43
2022/10/08 04:08:32;;;;;;;;;;;27.00;94.00;;;;;;5047054;28;19965;-44
2022/10/08 04:11:01;;;;;;;;;;;27.00;94.00;;;;;;5047399;28;19964;-40
2022/10/08 04:13:27;;;;;;;;;;;27.00;94.00;;;;;;5046857;28;20082;-40
2022/10/08 04:15:58;;;;;;;;;;;27.00;93.90;;;;;;5046407;28;20097;-42
2022/10/08 04:18:25;;;;;;;;;;;27.00;93.90;;;;;;5046748;28;20185;-40
2022/10/08 04:20:55;;;;;;;;;;;27.00;93.90;;;;;;5047570;28;19901;-42
2022/10/08 04:23:41;;;;;;;;;;;27.00;93.90;;;;;;5046792;28;20193;-47
2022/10/08 04:26:08;;;;;;;;;;;27.00;93.90;;;;;;5047000;28;19905;-41
2022/10/08 04:28:35;;;;;;;;;;;27.00;94.00;;;;;;5046271;28;24094;-45
2022/10/08 04:31:02;;;;;;;;;;;27.00;94.10;;;;;;5046748;28;19940;-44
2022/10/08 04:33:29;;;;;;;;;;;27.00;94.10;;;;;;5045348;28;19950;-41
2022/10/08 04:35:55;;;;;;;;;;;27.00;94.10;;;;;;5043355;28;19912;-43
2022/10/08 04:38:21;;;;;;;;;;;26.90;94.00;;;;;;5043377;28;24077;-47
2022/10/08 04:40:48;;;;;;;;;;;26.90;94.00;;;;;;5043499;28;19905;-45
2022/10/08 04:43:14;;;;;;;;;;;26.90;94.00;;;;;;5043200;28;19905;-41
2022/10/08 04:45:41;;;;;;;;;;;26.90;94.00;;;;;;5043375;28;19905;-45
2022/10/08 04:48:07;;;;;;;;;;;26.90;94.00;;;;;;5042886;28;19905;-40
2022/10/08 04:50:34;;;;;;;;;;;26.90;94.00;;;;;;5043645;28;19912;-43
2022/10/08 04:53:00;;;;;;;;;;;26.90;94.00;;;;;;5042842;28;20439;-43
2022/10/08 04:55:26;;;;;;;;;;;26.90;94.00;;;;;;5043470;28;20073;-39
2022/10/08 04:57:52;;;;;;;;;;;26.90;94.10;;;;;;5043237;28;24066;-41
2022/10/08 05:00:18;;;;;;;;;;;26.90;94.10;;;;;;5042695;28;24105;-41
2022/10/08 05:02:44;;;;;;;;;;;26.90;94.10;;;;;;5044092;28;20194;-41
2022/10/08 05:05:11;;;;;;;;;;;26.90;94.10;;;;;;5042891;28;20183;-45
2022/10/08 05:07:37;;;;;;;;;;;26.90;94.10;;;;;;5042594;28;24107;-40
2022/10/08 05:10:03;;;;;;;;;;;26.90;94.10;;;;;;5042547;28;24073;-42
2022/10/08 05:12:29;;;;;;;;;;;26.90;94.10;;;;;;5042782;28;20097;-41
2022/10/08 05:14:55;;;;;;;;;;;26.90;94.10;;;;;;5042423;28;20090;-40
2022/10/08 05:17:21;;;;;;;;;;;26.90;94.10;;;;;;5042879;28;19901;-40
2022/10/08 05:19:47;;;;;;;;;;;26.90;94.20;;;;;;5042844;28;24076;-40
2022/10/08 05:22:13;;;;;;;;;;;26.90;94.20;;;;;;5042739;28;24103;-45
2022/10/08 05:24:40;;;;;;;;;;;26.90;94.10;;;;;;5042977;28;19901;-41
2022/10/08 05:27:06;;;;;;;;;;;26.90;94.10;;;;;;5042440;28;20216;-41
2022/10/08 05:29:32;;;;;;;;;;;26.90;94.20;;;;;;5042337;28;20093;-41
2022/10/08 05:31:58;;;;;;;;;;;26.90;94.20;;;;;;5042692;28;19913;-42
2022/10/08 05:34:24;;;;;;;;;;;26.90;94.20;;;;;;5042428;28;19909;-43
2022/10/08 05:36:50;;;;;;;;;;;26.90;94.20;;;;;;5043083;28;19968;-48
2022/10/08 05:39:17;;;;;;;;;;;26.90;94.20;;;;;;5042020;28;25065;-39
2022/10/08 05:41:43;;;;;;;;;;;26.90;94.20;;;;;;5042487;28;19905;-42
2022/10/08 05:44:09;;;;;;;;;;;26.90;94.20;;;;;;5042423;28;24078;-44
2022/10/08 05:46:36;;;;;;;;;;;26.90;94.20;;;;;;5041510;28;19927;-44
2022/10/08 05:49:04;;;;;;;;;;;26.90;94.20;;;;;;5077032;27;19903;-51
2022/10/08 05:51:30;;;;;;;;;;;26.90;94.20;;;;;;5146640;27;19910;-40
2022/10/08 05:53:57;;;;;;;;;;;26.90;94.20;;;;;;5146303;27;19903;-40
2022/10/08 05:56:24;;;;;;;;;;;26.90;94.20;;;;;;5146461;27;24088;-41
2022/10/08 05:58:51;;;;;;;;;;;26.90;94.50;;;;;;5146328;27;24076;-41
2022/10/08 06:01:21;;;;;;;;;;;26.90;94.30;;;;;;5146606;27;20041;-44
2022/10/08 06:03:54;;;;;;;;;;;26.90;94.30;;;;;;5145979;27;19930;-41
2022/10/08 06:06:24;;;;;;;;;;;26.90;94.40;;;;;;5146483;27;20084;-44
2022/10/08 06:08:53;;;;;;;;;;;26.90;94.40;;;;;;5146118;27;19908;-42
2022/10/08 06:11:19;;;;;;;;;;;26.90;94.50;;;;;;5146256;27;20191;-40
2022/10/08 06:13:45;;;;;;;;;;;26.80;94.60;;;;;;5146024;27;19944;-41
2022/10/08 06:16:12;;;;;;;;;;;26.80;94.60;;;;;;5146207;27;20008;-41
2022/10/08 06:18:39;;;;;;;;;;;26.80;94.70;;;;;;5146058;27;19956;-42
2022/10/08 06:21:12;;;;;;;;;;;26.70;94.80;;;;;;5146107;27;20082;-44
2022/10/08 06:23:44;;;;;;;;;;;26.80;94.80;;;;;;5145800;27;19903;-44
2022/10/08 06:26:10;;;;;;;;;;;26.80;94.80;;;;;;5146397;27;19911;-42
2022/10/08 06:28:37;;;;;;;;;;;26.80;94.80;;;;;;5145295;27;19915;-39
2022/10/08 06:31:03;;;;;;;;;;;26.80;94.80;;;;;;5146122;27;20083;-48
2022/10/08 06:33:30;;;;;;;;;;;26.80;94.80;;;;;;5145712;27;19907;-46
2022/10/08 06:35:56;;;;;;;;;;;26.80;94.80;;;;;;5146031;27;19907;-40
2022/10/08 06:38:22;;;;;;;;;;;26.80;94.90;;;;;;5145427;27;19914;-46
2022/10/08 06:40:48;;;;;;;;;;;26.80;94.90;;;;;;5145369;27;20184;-42
2022/10/08 06:43:15;;;;;;;;;;;26.80;94.90;;;;;;5145275;27;19903;-41
2022/10/08 06:45:42;;;;;;;;;;;26.80;94.90;;;;;;5145343;27;20184;-44
2022/10/08 06:48:09;;;;;;;;;;;26.80;94.90;;;;;;5144847;27;19911;-43
2022/10/08 06:50:36;;;;;;;;;;;26.80;95.00;;;;;;5145115;27;19904;-41
2022/10/08 06:53:02;;;;;;;;;;;26.80;94.90;;;;;;5126935;27;20136;-41
2022/10/08 06:55:30;;;;;;;;;;;26.80;94.90;;;;;;5145481;27;19900;-44
2022/10/08 06:57:56;;;;;;;;;;;26.80;95.00;;;;;;5145053;27;20088;-42
2022/10/08 07:00:22;;;;;;;;;;;26.80;95.00;;;;;;5145371;27;19907;-41
2022/10/08 07:02:48;;;;;;;;;;;26.80;95.10;;;;;;5145174;27;19911;-44
2022/10/08 07:05:14;;;;;;;;;;;26.80;95.10;;;;;;5145103;27;19907;-43
2022/10/08 07:07:41;;;;;;;;;;;26.80;95.10;;;;;;5145208;27;20201;-46
2022/10/08 07:10:07;;;;;;;;;;;26.80;95.00;;;;;;5145570;27;20167;-40
2022/10/08 07:12:33;;;;;;;;;;;26.80;95.10;;;;;;5145062;27;19903;-40
2022/10/08 07:14:59;;;;;;;;;;;26.80;95.10;;;;;;5145172;27;19910;-40
2022/10/08 07:17:27;;;;;;;;;;;26.80;95.10;;;;;;5145199;27;24061;-44
2022/10/08 07:19:56;;;;;;;;;;;26.80;95.20;;;;;;5144960;27;19903;-41
2022/10/08 07:22:23;;;;;;;;;;;26.80;95.30;;;;;;5144930;28;20136;-42
2022/10/08 07:24:50;;;;;;;;;;;26.80;95.20;;;;;;5145030;28;20256;-44
2022/10/08 07:27:17;;;;;;;;;;;26.80;95.20;;;;;;5144748;28;19916;-44
2022/10/08 07:29:43;;;;;;;;;;;26.70;95.30;;;;;;5144827;28;19966;-41
2022/10/08 07:32:09;;;;;;;;;;;26.70;95.30;;;;;;5145070;28;19904;-43
2022/10/08 07:34:35;;;;;;;;;;;26.70;95.30;;;;;;5144930;28;20203;-43
2022/10/08 07:37:01;;;;;;;;;;;26.70;95.30;;;;;;5144844;28;19911;-45
2022/10/08 07:39:28;;;;;;;;;;;26.70;95.40;;;;;;5144954;28;20004;-49
2022/10/08 07:41:54;;;;;;;;;;;26.70;95.40;;;;;;5144684;28;24068;-48
2022/10/08 07:44:20;;;;;;;;;;;26.70;95.50;;;;;;5144520;28;19915;-45
2022/10/08 07:46:50;;;;;;;;;;;26.60;95.40;;;;;;5145316;28;19910;-45
2022/10/08 07:49:17;;;;;;;;;;;26.60;95.40;;;;;;5144953;28;19903;-44
2022/10/08 07:51:43;;;;;;;;;;;26.60;95.40;;;;;;5145167;28;19910;-41
2022/10/08 07:54:12;;;;;;;;;;;26.70;95.40;;;;;;5144771;28;24070;-41
2022/10/08 07:56:38;;;;;;;;;;;26.60;95.40;;;;;;5145238;28;19941;-41
2022/10/08 07:59:04;;;;;;;;;;;26.70;95.50;;;;;;5144887;28;20140;-48
2022/10/08 08:01:32;;;;;;;;;;;26.70;95.50;;;;;;5145110;28;20236;-43
2022/10/08 08:03:59;;;;;;;;;;;26.70;95.50;;;;;;5144837;28;20183;-40
2022/10/08 08:06:25;;;;;;;;;;;26.60;95.50;;;;;;5144954;28;19906;-43
2022/10/08 08:08:52;;;;;;;;;;;26.70;95.60;;;;;;5144878;27;24092;-40
2022/10/08 08:11:19;;;;;;;;;;;26.70;95.60;;;;;;5148860;27;24110;-42
2022/10/08 08:13:46;;;;;;;;;;;26.60;95.60;;;;;;5148274;27;20099;-47
2022/10/08 08:16:13;;;;;;;;;;;26.60;95.70;;;;;;5148557;27;19966;-39
2022/10/08 08:18:40;;;;;;;;;;;26.70;95.70;;;;;;5148381;27;19912;-40
2022/10/08 08:21:08;;;;;;;;;;;26.70;95.70;;;;;;5148336;27;19907;-40
2022/10/08 08:23:35;;;;;;;;;;;26.60;95.70;;;;;;5148176;27;19978;-42
2022/10/08 08:26:03;;;;;;;;;;;26.60;95.70;;;;;;5148240;27;19910;-39
2022/10/08 08:28:29;;;;;;;;;;;26.60;95.70;;;;;;5147843;27;25120;-40
2022/10/08 08:31:07;;;;;;;;;;;26.60;95.60;;;;;;5148084;27;20000;-42
2022/10/08 08:33:33;;;;;;;;;;;26.60;95.50;;;;;;5148092;27;19907;-47
2022/10/08 08:35:59;;;;;;;;;;;26.60;95.50;;;;;;5148164;27;24110;-47
2022/10/08 08:38:25;;;;;;;;;;;26.60;95.50;;;;;;5147924;27;19907;-45
2022/10/08 08:40:52;;;;;;;;;;;26.60;95.50;;;;;;5148293;27;24079;-45
2022/10/08 08:43:19;;;;;;;;;;;26.60;95.50;;;;;;5147605;27;19911;-41
2022/10/08 08:45:45;;;;;;;;;;;26.60;95.50;;;;;;5148115;27;19903;-39
2022/10/08 08:48:11;;;;;;;;;;;26.60;95.40;;;;;;5148020;27;19910;-40
2022/10/08 08:50:39;;;;;;;;;;;26.60;95.40;;;;;;5147388;27;24088;-40
2022/10/08 08:53:07;;;;;;;;;;;26.60;95.30;;;;;;5147884;27;19903;-41
2022/10/08 08:55:44;;;;;;;;;;;26.60;95.30;;;;;;5147548;27;19903;-42
2022/10/08 08:58:16;;;;;;;;;;;26.60;95.40;;;;;;5147727;27;19903;-42
2022/10/08 09:00:45;;;;;;;;;;;26.60;95.30;;;;;;5147545;27;19980;-41
2022/10/08 09:03:14;;;;;;;;;;;26.60;95.30;;;;;;5147185;27;19903;-44
2022/10/08 09:05:44;;;;;;;;;;;26.60;95.30;;;;;;5147255;27;19934;-43
2022/10/08 09:08:17;;;;;;;;;;;26.60;95.20;;;;;;5147021;27;20105;-41
2022/10/08 09:10:55;;;;;;;;;;;26.50;95.10;;;;;;5146743;27;19899;-46
2022/10/08 09:13:27;;;;;;;;;;;26.50;95.10;;;;;;5147339;27;19952;-41
2022/10/08 09:15:54;;;;;;;;;;;26.50;95.10;;;;;;5147472;27;19903;-47
2022/10/08 09:18:20;;;;;;;;;;;26.50;95.00;;;;;;5146890;27;19914;-42
2022/10/08 09:20:46;;;;;;;;;;;26.50;94.90;;;;;;5146935;27;19926;-46
2022/10/08 09:23:20;;;;;;;;;;;26.40;94.90;;;;;;5146859;27;20187;-44
2022/10/08 09:26:06;;;;;;;;;;;26.40;94.90;;;;;;5146936;27;20192;-47
2022/10/08 09:28:42;;;;;;;;;;;26.40;94.90;;;;;;5094668;27;20218;-40
2022/10/08 09:31:28;;;;;;;;;;;26.40;94.90;;;;;;5146760;27;24086;-43
2022/10/08 09:34:15;;;;;;;;;;;26.40;94.80;;;;;;5146729;27;19915;-41
2022/10/08 09:36:44;;;;;;;;;;;26.40;94.80;;;;;;5146371;27;19938;-40
2022/10/08 09:39:30;;;;;;;;;;;26.40;94.90;;;;;;5146033;27;19911;-45
2022/10/08 09:42:12;;;;;;;;;;;26.40;94.90;;;;;;5146906;27;20099;-42
2022/10/08 09:44:41;;;;;;;;;;;26.40;94.90;;;;;;5146045;27;19965;-43
2022/10/08 09:47:18;;;;;;;;;;;26.40;94.90;;;;;;5146335;27;19944;-49
2022/10/08 09:49:50;;;;;;;;;;;26.40;94.90;;;;;;5146082;27;19911;-49
2022/10/08 09:52:22;;;;;;;;;;;26.40;94.90;;;;;;5146555;27;19974;-40
2022/10/08 09:54:53;;;;;;;;;;;26.30;94.90;;;;;;5136594;27;20160;-40
2022/10/08 09:57:21;;;;;;;;;;;26.30;94.90;;;;;;5145858;27;19952;-41
2022/10/08 09:59:53;;;;;;;;;;;26.30;94.90;;;;;;5145876;27;20094;-42
2022/10/08 10:02:30;;;;;;;;;;;26.30;94.90;;;;;;5136020;27;24078;-41
2022/10/08 10:04:57;;;;;;;;;;;26.30;94.90;;;;;;5145923;27;24073;-40
2022/10/08 10:07:23;;;;;;;;;;;26.30;94.90;;;;;;5145827;27;19910;-40
2022/10/08 10:09:55;;;;;;;;;;;26.20;94.80;;;;;;5145579;27;24072;-40
2022/10/08 10:12:24;;;;;;;;;;;26.20;94.80;;;;;;5145788;27;19952;-43
2022/10/08 10:14:50;;;;;;;;;;;26.20;94.70;;;;;;5126867;27;20220;-39
2022/10/08 10:17:24;;;;;;;;;;;26.20;94.70;;;;;;5145377;27;20016;-40
2022/10/08 10:19:56;;;;;;;;;;;26.20;94.80;;;;;;5145532;27;19903;-40
2022/10/08 10:22:28;;;;;;;;;;;26.20;94.80;;;;;;5145139;27;24100;-40
2022/10/08 10:24:58;;;;;;;;;;;26.20;94.80;;;;;;5145632;27;19899;-41
2022/10/08 10:27:30;;;;;;;;;;;26.20;94.70;;;;;;5145344;27;19915;-40
2022/10/08 10:30:12;;;;;;;;;;;26.20;94.70;;;;;;5145294;27;20244;-40
2022/10/08 10:32:44;;;;;;;;;;;26.20;94.70;;;;;;5144374;27;24064;-44
2022/10/08 10:35:16;;;;;;;;;;;26.20;94.80;;;;;;5142547;27;19903;-42
2022/10/08 10:37:56;;;;;;;;;;;26.20;94.70;;;;;;5145579;27;19908;-42
2022/10/08 10:40:28;;;;;;;;;;;26.20;94.70;;;;;;5145401;27;20088;-48
2022/10/08 10:43:17;;;;;;;;;;;26.20;94.70;;;;;;5145588;27;25084;-40
2022/10/08 10:45:50;;;;;;;;;;;26.20;94.70;;;;;;5119152;27;19912;-40
2022/10/08 10:48:16;;;;;;;;;;;26.20;94.70;;;;;;5121697;27;20192;-40
2022/10/08 10:50:48;;;;;;;;;;;26.20;94.70;;;;;;5079893;27;24078;-45
2022/10/08 10:53:21;;;;;;;;;;;26.20;94.70;;;;;;5021319;28;20215;-41
2022/10/08 10:55:52;;;;;;;;;;;26.20;94.70;;;;;;5020794;28;24099;-43
2022/10/08 10:58:24;;;;;;;;;;;26.20;94.70;;;;;;5021282;28;19909;-44
2022/10/08 11:00:59;;;;;;;;;;;26.20;94.70;;;;;;5021570;28;19913;-45
2022/10/08 11:03:45;;;;;;;;;;;26.20;94.70;;;;;;5021022;28;19917;-45
2022/10/08 11:06:14;;;;;;;;;;;26.20;94.70;;;;;;5021107;28;19901;-44
2022/10/08 11:08:40;;;;;;;;;;;26.20;94.80;;;;;;5019704;28;19976;-41
2022/10/08 11:11:20;;;;;;;;;;;26.10;94.90;;;;;;5019110;28;24118;-48
2022/10/08 11:14:04;;;;;;;;;;;26.10;94.90;;;;;;5019154;28;20082;-43
2022/10/08 11:16:39;;;;;;;;;;;26.10;95.10;;;;;;5019767;28;20181;-48
2022/10/08 11:19:11;;;;;;;;;;;26.10;95.20;;;;;;5019268;28;19984;-43
2022/10/08 11:21:44;;;;;;;;;;;26.10;95.20;;;;;;5020537;28;19954;-44
2022/10/08 11:24:28;;;;;;;;;;;26.10;95.30;;;;;;5020980;28;20101;-48
2022/10/08 11:27:13;;;;;;;;;;;26.10;95.20;;;;;;5021260;28;19913;-44
2022/10/08 11:29:54;;;;;;;;;;;26.10;95.20;;;;;;5020090;28;19937;-45
2022/10/08 11:32:21;;;;;;;;;;;26.10;95.10;;;;;;5020412;28;24106;-45
2022/10/08 11:35:01;;;;;;;;;;;26.10;95.10;;;;;;5018754;28;19906;-46
2022/10/08 11:37:31;;;;;;;;;;;26.10;95.20;;;;;;5019011;28;19909;-47
2022/10/08 11:39:57;;;;;;;;;;;26.10;95.10;;;;;;5018618;28;19950;-46
2022/10/08 11:42:29;;;;;;;;;;;26.20;95.10;;;;;;5019310;28;24098;-45
2022/10/08 11:45:12;;;;;;;;;;;26.20;95.20;;;;;;5022599;28;19914;-50
2022/10/08 11:47:41;;;;;;;;;;;26.20;95.30;;;;;;5022558;28;20005;-51
2022/10/08 11:50:25;;;;;;;;;;;26.20;95.30;;;;;;5024672;28;19954;-47
2022/10/08 11:52:54;;;;;;;;;;;26.20;95.20;;;;;;5024169;28;24076;-45
2022/10/08 11:55:25;;;;;;;;;;;26.20;95.20;;;;;;5024357;28;19935;-48
2022/10/08 11:57:59;;;;;;;;;;;26.20;95.20;;;;;;5023922;28;19916;-46
2022/10/08 12:00:32;;;;;;;;;;;26.20;95.40;;;;;;5024008;28;19906;-46
2022/10/08 12:02:58;;;;;;;;;;;26.20;95.30;;;;;;5023967;28;19914;-43
2022/10/08 12:05:36;;;;;;;;;;;26.30;95.10;;;;;;5024335;28;20090;-45
2022/10/08 12:08:05;;;;;;;;;;;26.30;95.00;;;;;;5023965;28;19910;-47
2022/10/08 12:10:35;;;;;;;;;;;26.30;95.10;;;;;;5023976;28;19905;-50
2022/10/08 12:13:21;;;;;;;;;;;26.30;95.10;;;;;;5023549;28;19909;-45
2022/10/08 12:15:48;;;;;;;;;;;26.30;95.30;;;;;;5023489;28;19958;-51
2022/10/08 12:18:19;;;;;;;;;;;26.40;95.30;;;;;;5023317;28;19998;-44
2022/10/08 12:20:45;;;;;;;;;;;26.40;95.40;;;;;;5023973;28;24066;-44
2022/10/08 12:23:34;;;;;;;;;;;26.50;95.20;;;;;;5023605;28;24121;-49
2022/10/08 12:26:02;;;;;;;;;;;26.50;95.40;;;;;;5023662;28;19912;-45
2022/10/08 12:28:28;;;;;;;;;;;26.60;95.50;;;;;;5023305;28;19917;-48
2022/10/08 12:30:56;;;;;;;;;;;26.60;95.40;;;;;;5023884;28;20165;-48
2022/10/08 12:33:22;;;;;;;;;;;26.60;95.40;;;;;;5024014;28;19964;-47
2022/10/08 12:36:09;;;;;;;;;;;26.70;95.10;;;;;;5023614;28;24128;-49
2022/10/08 12:38:35;;;;;;;;;;;26.70;95.00;;;;;;5023552;28;24100;-46
2022/10/08 12:41:01;;;;;;;;;;;26.80;94.90;;;;;;5023954;28;19906;-50
2022/10/08 12:43:45;;;;;;;;;;;26.80;94.90;;;;;;5023854;28;19909;-50
2022/10/08 12:46:16;;;;;;;;;;;26.80;94.90;;;;;;5023981;28;20066;-48
2022/10/08 12:48:42;;;;;;;;;;;26.90;94.80;;;;;;5023764;28;19979;-48
2022/10/08 12:51:09;;;;;;;;;;;26.90;94.70;;;;;;5023758;28;19948;-45
2022/10/08 12:53:35;;;;;;;;;;;27.00;94.70;;;;;;5023236;28;19977;-49
2022/10/08 12:56:01;;;;;;;;;;;27.00;94.60;;;;;;5023016;28;19909;-48
2022/10/08 12:58:29;;;;;;;;;;;27.10;94.70;;;;;;5005882;28;20262;-47
2022/10/08 13:00:57;;;;;;;;;;;27.10;94.80;;;;;;5023092;28;24088;-51
2022/10/08 13:03:24;;;;;;;;;;;27.10;94.70;;;;;;5023162;28;19910;-45
2022/10/08 13:05:54;;;;;;;;;;;27.10;94.80;;;;;;5005810;28;19906;-50
2022/10/08 13:08:23;;;;;;;;;;;27.20;94.50;;;;;;5023072;28;19937;-46
2022/10/08 13:10:49;;;;;;;;;;;27.20;94.70;;;;;;5023067;28;19905;-43
2022/10/08 13:13:30;;;;;;;;;;;27.20;94.70;;;;;;5022988;28;19910;-49
2022/10/08 13:16:00;;;;;;;;;;;27.30;94.60;;;;;;5023061;28;20101;-51
2022/10/08 13:18:28;;;;;;;;;;;27.30;94.70;;;;;;5022937;28;20052;-45
2022/10/08 13:20:56;;;;;;;;;;;27.30;94.60;;;;;;5023030;28;19902;-47
2022/10/08 13:23:32;;;;;;;;;;;27.30;94.50;;;;;;5022574;28;20194;-51
2022/10/08 13:25:59;;;;;;;;;;;27.30;94.60;;;;;;5022907;28;19905;-49
2022/10/08 13:28:25;;;;;;;;;;;27.30;94.60;;;;;;5022229;28;20199;-51
2022/10/08 13:30:55;;;;;;;;;;;27.40;94.70;;;;;;5023178;28;19947;-50
2022/10/08 13:33:23;;;;;;;;;;;27.40;94.50;;;;;;5022758;28;20041;-47
2022/10/08 13:35:59;;;;;;;;;;;27.40;94.60;;;;;;5022263;28;20041;-48
2022/10/08 13:38:29;;;;;;;;;;;27.40;94.50;;;;;;5022958;28;19948;-50
2022/10/08 13:41:04;;;;;;;;;;;27.40;94.60;;;;;;5022557;28;19943;-51
2022/10/08 13:43:32;;;;;;;;;;;27.50;94.70;;;;;;5022546;28;19905;-43
2022/10/08 13:45:58;;;;;;;;;;;27.50;94.60;;;;;;5022679;28;24087;-52
2022/10/08 13:48:24;;;;;;;;;;;27.50;94.60;;;;;;5022753;28;19913;-49
2022/10/08 13:50:51;;;;;;;;;;;27.50;94.70;;;;;;5023059;28;20202;-49
2022/10/08 13:53:19;;;;;;;;;;;27.60;94.80;;;;;;5021829;28;24100;-45
2022/10/08 13:55:47;;;;;;;;;;;27.60;94.80;;;;;;5022113;28;19906;-51
2022/10/08 13:58:13;;;;;;;;;;;27.60;94.80;;;;;;5022028;28;19981;-47
2022/10/08 14:00:40;;;;;;;;;;;27.70;94.90;;;;;;5021910;28;19963;-44
2022/10/08 14:03:07;;;;;;;;;;;27.70;94.80;;;;;;5022212;28;20198;-47
2022/10/08 14:05:41;;;;;;;;;;;27.70;94.90;;;;;;5021708;28;20059;-44
2022/10/08 14:08:18;;;;;;;;;;;27.70;94.80;;;;;;5020616;28;24076;-44
2022/10/08 14:10:45;;;;;;;;;;;27.70;94.80;;;;;;5021599;28;24150;-44
2022/10/08 14:13:12;;;;;;;;;;;27.70;94.80;;;;;;5021957;28;20239;-47
2022/10/08 14:15:38;;;;;;;;;;;27.80;94.70;;;;;;5022022;28;19928;-44
2022/10/08 14:18:04;;;;;;;;;;;27.70;94.70;;;;;;5021667;28;19913;-45
2022/10/08 14:20:31;;;;;;;;;;;27.80;94.70;;;;;;5021670;28;19988;-44
2022/10/08 14:22:57;;;;;;;;;;;27.80;94.70;;;;;;5021466;28;24072;-46
2022/10/08 14:25:32;;;;;;;;;;;27.70;94.70;;;;;;5021740;28;19905;-44
2022/10/08 14:28:00;;;;;;;;;;;27.80;94.70;;;;;;5021589;28;19957;-48
2022/10/08 14:30:27;;;;;;;;;;;27.80;94.90;;;;;;5021675;28;19905;-45
2022/10/08 14:32:54;;;;;;;;;;;27.80;94.60;;;;;;5021663;28;20174;-48